sensor_id;sensor_type;location;lat;lon;timestamp;P1;durP1;ratioP1;P2;durP2;ratioP2
72284;SDS011;60220;53.552;10.092;2024-01-16T00:02:10;2.70;;;1.58;;
72284;SDS011;60220;53.552;10.092;2024-01-16T00:04:39;3.30;;;1.70;;
72284;SDS011;60220;53.552;10.092;2024-01-16T00:07:07;4.32;;;1.63;;
72284;SDS011;60220;53.552;10.092;2024-01-16T00:09:33;5.18;;;1.30;;
72284;SDS011;60220;53.552;10.092;2024-01-16T00:12:01;3.63;;;1.63;;
72284;SDS011;60220;53.552;10.092;2024-01-16T00:14:33;2.47;;;1.50;;
72284;SDS011;60220;53.552;10.092;2024-01-16T00:17:01;3.30;;;1.60;;
72284;SDS011;60220;53.552;10.092;2024-01-16T00:19:28;6.32;;;1.30;;
72284;SDS011;60220;53.552;10.092;2024-01-16T00:21:56;3.13;;;1.60;;
72284;SDS011;60220;53.552;10.092;2024-01-16T00:24:26;3.92;;;1.65;;
72284;SDS011;60220;53.552;10.092;2024-01-16T00:26:53;1.52;;;1.20;;
72284;SDS011;60220;53.552;10.092;2024-01-16T00:29:19;3.88;;;1.20;;
72284;SDS011;60220;53.552;10.092;2024-01-16T00:31:46;2.88;;;1.48;;
72284;SDS011;60220;53.552;10.092;2024-01-16T00:34:13;4.80;;;1.65;;
72284;SDS011;60220;53.552;10.092;2024-01-16T00:36:40;5.05;;;1.70;;
72284;SDS011;60220;53.552;10.092;2024-01-16T00:39:06;6.53;;;2.13;;
72284;SDS011;60220;53.552;10.092;2024-01-16T00:41:36;6.22;;;1.98;;
72284;SDS011;60220;53.552;10.092;2024-01-16T00:44:04;3.78;;;1.88;;
72284;SDS011;60220;53.552;10.092;2024-01-16T00:46:35;3.10;;;1.95;;
72284;SDS011;60220;53.552;10.092;2024-01-16T00:49:01;8.30;;;2.00;;
72284;SDS011;60220;53.552;10.092;2024-01-16T00:51:28;3.00;;;1.88;;
72284;SDS011;60220;53.552;10.092;2024-01-16T00:53:55;8.73;;;2.90;;
72284;SDS011;60220;53.552;10.092;2024-01-16T00:56:24;3.75;;;2.20;;
72284;SDS011;60220;53.552;10.092;2024-01-16T00:58:54;3.63;;;2.25;;
72284;SDS011;60220;53.552;10.092;2024-01-16T01:04:06;4.70;;;2.83;;
72284;SDS011;60220;53.552;10.092;2024-01-16T01:06:32;5.32;;;2.88;;
72284;SDS011;60220;53.552;10.092;2024-01-16T01:09:01;6.75;;;2.40;;
72284;SDS011;60220;53.552;10.092;2024-01-16T01:11:30;9.57;;;3.03;;
72284;SDS011;60220;53.552;10.092;2024-01-16T01:13:58;5.53;;;2.47;;
72284;SDS011;60220;53.552;10.092;2024-01-16T01:16:25;4.63;;;2.25;;
72284;SDS011;60220;53.552;10.092;2024-01-16T01:18:52;9.50;;;3.03;;
72284;SDS011;60220;53.552;10.092;2024-01-16T01:21:18;3.40;;;1.95;;
72284;SDS011;60220;53.552;10.092;2024-01-16T01:23:45;6.82;;;2.85;;
72284;SDS011;60220;53.552;10.092;2024-01-16T01:26:11;4.32;;;2.63;;
72284;SDS011;60220;53.552;10.092;2024-01-16T01:28:39;3.92;;;2.53;;
72284;SDS011;60220;53.552;10.092;2024-01-16T01:31:13;2.83;;;2.03;;
72284;SDS011;60220;53.552;10.092;2024-01-16T01:33:40;3.90;;;2.17;;
72284;SDS011;60220;53.552;10.092;2024-01-16T01:36:07;3.65;;;2.15;;
72284;SDS011;60220;53.552;10.092;2024-01-16T01:38:35;6.85;;;2.45;;
72284;SDS011;60220;53.552;10.092;2024-01-16T01:41:02;6.32;;;2.38;;
72284;SDS011;60220;53.552;10.092;2024-01-16T01:43:29;3.17;;;1.98;;
72284;SDS011;60220;53.552;10.092;2024-01-16T01:46:09;4.78;;;2.40;;
72284;SDS011;60220;53.552;10.092;2024-01-16T01:48:38;2.72;;;1.60;;
72284;SDS011;60220;53.552;10.092;2024-01-16T01:51:07;7.20;;;2.70;;
72284;SDS011;60220;53.552;10.092;2024-01-16T01:53:34;4.28;;;2.05;;
72284;SDS011;60220;53.552;10.092;2024-01-16T01:56:07;3.72;;;2.00;;
72284;SDS011;60220;53.552;10.092;2024-01-16T01:58:34;4.40;;;2.20;;
72284;SDS011;60220;53.552;10.092;2024-01-16T02:01:03;5.03;;;2.25;;
72284;SDS011;60220;53.552;10.092;2024-01-16T02:03:32;8.23;;;2.35;;
72284;SDS011;60220;53.552;10.092;2024-01-16T02:06:07;5.47;;;2.22;;
72284;SDS011;60220;53.552;10.092;2024-01-16T02:08:33;8.02;;;2.70;;
72284;SDS011;60220;53.552;10.092;2024-01-16T02:11:00;4.63;;;2.58;;
72284;SDS011;60220;53.552;10.092;2024-01-16T02:13:27;3.40;;;1.75;;
72284;SDS011;60220;53.552;10.092;2024-01-16T02:15:54;7.03;;;2.45;;
72284;SDS011;60220;53.552;10.092;2024-01-16T02:18:20;5.70;;;2.40;;
72284;SDS011;60220;53.552;10.092;2024-01-16T02:20:47;4.25;;;2.67;;
72284;SDS011;60220;53.552;10.092;2024-01-16T02:23:15;8.57;;;2.28;;
72284;SDS011;60220;53.552;10.092;2024-01-16T02:25:50;5.65;;;2.78;;
72284;SDS011;60220;53.552;10.092;2024-01-16T02:28:17;3.97;;;2.33;;
72284;SDS011;60220;53.552;10.092;2024-01-16T02:30:43;3.08;;;1.83;;
72284;SDS011;60220;53.552;10.092;2024-01-16T02:33:10;6.25;;;1.85;;
72284;SDS011;60220;53.552;10.092;2024-01-16T02:35:37;3.20;;;1.95;;
72284;SDS011;60220;53.552;10.092;2024-01-16T02:38:04;2.15;;;1.50;;
72284;SDS011;60220;53.552;10.092;2024-01-16T02:40:32;5.82;;;2.33;;
72284;SDS011;60220;53.552;10.092;2024-01-16T02:42:58;7.65;;;2.78;;
72284;SDS011;60220;53.552;10.092;2024-01-16T02:45:25;4.03;;;2.33;;
72284;SDS011;60220;53.552;10.092;2024-01-16T02:47:52;4.68;;;2.25;;
72284;SDS011;60220;53.552;10.092;2024-01-16T02:50:20;3.35;;;2.30;;
72284;SDS011;60220;53.552;10.092;2024-01-16T02:52:48;4.60;;;2.63;;
72284;SDS011;60220;53.552;10.092;2024-01-16T02:55:16;6.55;;;2.50;;
72284;SDS011;60220;53.552;10.092;2024-01-16T02:57:47;7.13;;;2.63;;
72284;SDS011;60220;53.552;10.092;2024-01-16T03:00:14;5.22;;;3.22;;
72284;SDS011;60220;53.552;10.092;2024-01-16T03:02:41;6.35;;;2.75;;
72284;SDS011;60220;53.552;10.092;2024-01-16T03:05:10;8.57;;;3.80;;
72284;SDS011;60220;53.552;10.092;2024-01-16T03:07:37;8.68;;;4.28;;
72284;SDS011;60220;53.552;10.092;2024-01-16T03:10:04;10.68;;;4.03;;
72284;SDS011;60220;53.552;10.092;2024-01-16T03:12:32;13.75;;;5.63;;
72284;SDS011;60220;53.552;10.092;2024-01-16T03:15:00;15.65;;;5.32;;
72284;SDS011;60220;53.552;10.092;2024-01-16T03:17:28;13.15;;;5.65;;
72284;SDS011;60220;53.552;10.092;2024-01-16T03:19:54;16.55;;;6.68;;
72284;SDS011;60220;53.552;10.092;2024-01-16T03:22:21;12.70;;;5.57;;
72284;SDS011;60220;53.552;10.092;2024-01-16T03:24:49;15.70;;;6.70;;
72284;SDS011;60220;53.552;10.092;2024-01-16T03:27:16;12.68;;;5.57;;
72284;SDS011;60220;53.552;10.092;2024-01-16T03:29:45;14.25;;;6.65;;
72284;SDS011;60220;53.552;10.092;2024-01-16T03:32:13;21.67;;;7.68;;
72284;SDS011;60220;53.552;10.092;2024-01-16T03:34:40;12.15;;;5.63;;
72284;SDS011;60220;53.552;10.092;2024-01-16T03:37:09;14.73;;;5.63;;
72284;SDS011;60220;53.552;10.092;2024-01-16T03:39:35;11.27;;;5.55;;
72284;SDS011;60220;53.552;10.092;2024-01-16T03:42:02;12.45;;;4.85;;
72284;SDS011;60220;53.552;10.092;2024-01-16T03:44:29;13.73;;;5.32;;
72284;SDS011;60220;53.552;10.092;2024-01-16T03:46:55;8.20;;;4.10;;
72284;SDS011;60220;53.552;10.092;2024-01-16T03:49:23;10.50;;;5.03;;
72284;SDS011;60220;53.552;10.092;2024-01-16T03:51:53;10.25;;;6.18;;
72284;SDS011;60220;53.552;10.092;2024-01-16T03:54:22;11.07;;;5.22;;
72284;SDS011;60220;53.552;10.092;2024-01-16T03:56:48;16.58;;;6.25;;
72284;SDS011;60220;53.552;10.092;2024-01-16T03:59:16;10.85;;;4.85;;
72284;SDS011;60220;53.552;10.092;2024-01-16T04:01:42;12.80;;;5.53;;
72284;SDS011;60220;53.552;10.092;2024-01-16T04:04:12;10.48;;;4.85;;
72284;SDS011;60220;53.552;10.092;2024-01-16T04:06:43;13.50;;;6.43;;
72284;SDS011;60220;53.552;10.092;2024-01-16T04:09:12;9.90;;;5.00;;
72284;SDS011;60220;53.552;10.092;2024-01-16T04:11:39;8.70;;;4.55;;
72284;SDS011;60220;53.552;10.092;2024-01-16T04:14:06;10.40;;;4.80;;
72284;SDS011;60220;53.552;10.092;2024-01-16T04:16:35;12.07;;;4.90;;
72284;SDS011;60220;53.552;10.092;2024-01-16T04:19:02;11.07;;;5.15;;
72284;SDS011;60220;53.552;10.092;2024-01-16T04:21:28;10.18;;;4.90;;
72284;SDS011;60220;53.552;10.092;2024-01-16T04:23:56;11.90;;;4.47;;
72284;SDS011;60220;53.552;10.092;2024-01-16T04:26:23;11.20;;;5.10;;
72284;SDS011;60220;53.552;10.092;2024-01-16T04:28:50;9.90;;;5.00;;
72284;SDS011;60220;53.552;10.092;2024-01-16T04:31:16;15.30;;;4.95;;
72284;SDS011;60220;53.552;10.092;2024-01-16T04:33:44;8.70;;;4.70;;
72284;SDS011;60220;53.552;10.092;2024-01-16T04:36:11;9.88;;;5.15;;
72284;SDS011;60220;53.552;10.092;2024-01-16T04:38:40;10.70;;;4.55;;
72284;SDS011;60220;53.552;10.092;2024-01-16T04:41:08;6.88;;;4.32;;
72284;SDS011;60220;53.552;10.092;2024-01-16T04:43:35;11.00;;;6.57;;
72284;SDS011;60220;53.552;10.092;2024-01-16T04:46:02;13.07;;;5.38;;
72284;SDS011;60220;53.552;10.092;2024-01-16T04:48:29;5.63;;;3.13;;
72284;SDS011;60220;53.552;10.092;2024-01-16T04:50:55;10.02;;;3.65;;
72284;SDS011;60220;53.552;10.092;2024-01-16T04:53:22;12.57;;;4.75;;
72284;SDS011;60220;53.552;10.092;2024-01-16T04:55:48;7.05;;;3.55;;
72284;SDS011;60220;53.552;10.092;2024-01-16T04:58:17;8.98;;;4.10;;
72284;SDS011;60220;53.552;10.092;2024-01-16T05:00:43;6.90;;;4.07;;
72284;SDS011;60220;53.552;10.092;2024-01-16T05:03:11;11.50;;;3.65;;
72284;SDS011;60220;53.552;10.092;2024-01-16T05:05:39;11.43;;;3.70;;
72284;SDS011;60220;53.552;10.092;2024-01-16T05:08:08;9.57;;;4.18;;
72284;SDS011;60220;53.552;10.092;2024-01-16T05:10:35;8.18;;;3.72;;
72284;SDS011;60220;53.552;10.092;2024-01-16T05:13:02;9.00;;;3.55;;
72284;SDS011;60220;53.552;10.092;2024-01-16T05:15:30;10.73;;;5.20;;
72284;SDS011;60220;53.552;10.092;2024-01-16T05:17:57;7.97;;;3.92;;
72284;SDS011;60220;53.552;10.092;2024-01-16T05:20:23;7.32;;;3.45;;
72284;SDS011;60220;53.552;10.092;2024-01-16T05:22:50;8.88;;;4.35;;
72284;SDS011;60220;53.552;10.092;2024-01-16T05:25:17;7.57;;;3.33;;
72284;SDS011;60220;53.552;10.092;2024-01-16T05:27:44;7.53;;;2.92;;
72284;SDS011;60220;53.552;10.092;2024-01-16T05:30:11;11.30;;;3.80;;
72284;SDS011;60220;53.552;10.092;2024-01-16T05:32:39;6.25;;;3.05;;
72284;SDS011;60220;53.552;10.092;2024-01-16T05:35:06;14.10;;;4.57;;
72284;SDS011;60220;53.552;10.092;2024-01-16T05:37:35;6.53;;;2.95;;
72284;SDS011;60220;53.552;10.092;2024-01-16T05:40:02;4.95;;;2.08;;
72284;SDS011;60220;53.552;10.092;2024-01-16T05:42:29;5.95;;;2.13;;
72284;SDS011;60220;53.552;10.092;2024-01-16T05:44:56;2.15;;;1.30;;
72284;SDS011;60220;53.552;10.092;2024-01-16T05:47:22;2.97;;;1.70;;
72284;SDS011;60220;53.552;10.092;2024-01-16T05:49:54;2.38;;;1.20;;
72284;SDS011;60220;53.552;10.092;2024-01-16T05:52:23;2.10;;;1.40;;
72284;SDS011;60220;53.552;10.092;2024-01-16T05:54:50;2.25;;;1.42;;
72284;SDS011;60220;53.552;10.092;2024-01-16T05:57:16;4.18;;;1.48;;
72284;SDS011;60220;53.552;10.092;2024-01-16T05:59:43;2.05;;;1.30;;
72284;SDS011;60220;53.552;10.092;2024-01-16T06:02:10;3.05;;;1.80;;
72284;SDS011;60220;53.552;10.092;2024-01-16T06:04:37;6.03;;;1.90;;
72284;SDS011;60220;53.552;10.092;2024-01-16T06:07:05;1.67;;;0.93;;
72284;SDS011;60220;53.552;10.092;2024-01-16T06:09:32;1.45;;;0.98;;
72284;SDS011;60220;53.552;10.092;2024-01-16T06:11:59;5.72;;;1.83;;
72284;SDS011;60220;53.552;10.092;2024-01-16T06:14:28;5.57;;;1.20;;
72284;SDS011;60220;53.552;10.092;2024-01-16T06:16:55;3.15;;;1.33;;
72284;SDS011;60220;53.552;10.092;2024-01-16T06:19:21;1.70;;;0.73;;
72284;SDS011;60220;53.552;10.092;2024-01-16T06:21:48;4.90;;;1.33;;
72284;SDS011;60220;53.552;10.092;2024-01-16T06:24:16;6.75;;;1.45;;
72284;SDS011;60220;53.552;10.092;2024-01-16T06:26:42;1.45;;;0.68;;
72284;SDS011;60220;53.552;10.092;2024-01-16T06:29:09;4.13;;;1.30;;
72284;SDS011;60220;53.552;10.092;2024-01-16T06:31:36;2.28;;;1.20;;
72284;SDS011;60220;53.552;10.092;2024-01-16T06:34:03;6.78;;;1.23;;
72284;SDS011;60220;53.552;10.092;2024-01-16T06:36:32;1.27;;;0.98;;
72284;SDS011;60220;53.552;10.092;2024-01-16T06:38:59;5.68;;;1.00;;
72284;SDS011;60220;53.552;10.092;2024-01-16T06:41:29;1.73;;;1.00;;
72284;SDS011;60220;53.552;10.092;2024-01-16T06:43:58;4.47;;;1.95;;
72284;SDS011;60220;53.552;10.092;2024-01-16T06:46:25;2.60;;;1.60;;
72284;SDS011;60220;53.552;10.092;2024-01-16T06:48:54;2.55;;;1.25;;
72284;SDS011;60220;53.552;10.092;2024-01-16T06:51:21;7.45;;;1.55;;
72284;SDS011;60220;53.552;10.092;2024-01-16T06:53:48;3.95;;;1.10;;
72284;SDS011;60220;53.552;10.092;2024-01-16T06:56:14;8.82;;;1.88;;
72284;SDS011;60220;53.552;10.092;2024-01-16T06:58:42;1.92;;;1.50;;
72284;SDS011;60220;53.552;10.092;2024-01-16T07:01:09;6.38;;;1.35;;
72284;SDS011;60220;53.552;10.092;2024-01-16T07:03:36;3.75;;;2.00;;
72284;SDS011;60220;53.552;10.092;2024-01-16T07:06:03;3.75;;;1.58;;
72284;SDS011;60220;53.552;10.092;2024-01-16T07:08:29;4.53;;;1.45;;
72284;SDS011;60220;53.552;10.092;2024-01-16T07:10:56;3.47;;;1.63;;
72284;SDS011;60220;53.552;10.092;2024-01-16T07:13:23;8.68;;;1.77;;
72284;SDS011;60220;53.552;10.092;2024-01-16T07:15:51;3.67;;;1.33;;
72284;SDS011;60220;53.552;10.092;2024-01-16T07:18:17;1.35;;;0.90;;
72284;SDS011;60220;53.552;10.092;2024-01-16T07:20:44;3.08;;;0.88;;
72284;SDS011;60220;53.552;10.092;2024-01-16T07:23:14;1.90;;;1.10;;
72284;SDS011;60220;53.552;10.092;2024-01-16T07:25:41;3.03;;;1.50;;
72284;SDS011;60220;53.552;10.092;2024-01-16T07:28:07;3.03;;;1.17;;
72284;SDS011;60220;53.552;10.092;2024-01-16T07:30:34;3.50;;;1.77;;
72284;SDS011;60220;53.552;10.092;2024-01-16T07:33:03;3.33;;;1.63;;
72284;SDS011;60220;53.552;10.092;2024-01-16T07:35:30;5.78;;;2.25;;
72284;SDS011;60220;53.552;10.092;2024-01-16T07:37:57;6.70;;;2.03;;
72284;SDS011;60220;53.552;10.092;2024-01-16T07:40:23;4.03;;;2.40;;
72284;SDS011;60220;53.552;10.092;2024-01-16T07:42:51;8.85;;;1.83;;
72284;SDS011;60220;53.552;10.092;2024-01-16T07:45:20;3.58;;;1.90;;
72284;SDS011;60220;53.552;10.092;2024-01-16T07:47:46;5.57;;;1.80;;
72284;SDS011;60220;53.552;10.092;2024-01-16T07:50:15;6.40;;;2.45;;
72284;SDS011;60220;53.552;10.092;2024-01-16T07:52:41;4.38;;;2.70;;
72284;SDS011;60220;53.552;10.092;2024-01-16T07:55:08;7.70;;;4.00;;
72284;SDS011;60220;53.552;10.092;2024-01-16T07:57:35;4.93;;;3.17;;
72284;SDS011;60220;53.552;10.092;2024-01-16T08:00:02;8.43;;;2.88;;
72284;SDS011;60220;53.552;10.092;2024-01-16T08:02:31;5.78;;;3.13;;
72284;SDS011;60220;53.552;10.092;2024-01-16T08:05:01;7.13;;;3.42;;
72284;SDS011;60220;53.552;10.092;2024-01-16T08:07:29;4.47;;;3.17;;
72284;SDS011;60220;53.552;10.092;2024-01-16T08:09:56;6.63;;;3.60;;
72284;SDS011;60220;53.552;10.092;2024-01-16T08:12:23;4.43;;;3.00;;
72284;SDS011;60220;53.552;10.092;2024-01-16T08:14:49;7.97;;;4.28;;
72284;SDS011;60220;53.552;10.092;2024-01-16T08:17:19;13.05;;;4.43;;
72284;SDS011;60220;53.552;10.092;2024-01-16T08:19:46;7.13;;;2.53;;
72284;SDS011;60220;53.552;10.092;2024-01-16T08:22:15;4.88;;;2.65;;
72284;SDS011;60220;53.552;10.092;2024-01-16T08:24:45;9.98;;;3.90;;
72284;SDS011;60220;53.552;10.092;2024-01-16T08:27:14;9.60;;;4.30;;
72284;SDS011;60220;53.552;10.092;2024-01-16T08:29:42;11.00;;;3.55;;
72284;SDS011;60220;53.552;10.092;2024-01-16T08:32:08;6.57;;;3.20;;
72284;SDS011;60220;53.552;10.092;2024-01-16T08:34:37;9.65;;;3.45;;
72284;SDS011;60220;53.552;10.092;2024-01-16T08:37:04;11.23;;;4.22;;
72284;SDS011;60220;53.552;10.092;2024-01-16T08:39:31;5.35;;;3.15;;
72284;SDS011;60220;53.552;10.092;2024-01-16T08:42:00;12.95;;;4.07;;
72284;SDS011;60220;53.552;10.092;2024-01-16T08:44:30;9.93;;;4.32;;
72284;SDS011;60220;53.552;10.092;2024-01-16T08:46:59;9.32;;;3.15;;
72284;SDS011;60220;53.552;10.092;2024-01-16T08:49:31;7.22;;;3.58;;
72284;SDS011;60220;53.552;10.092;2024-01-16T08:51:58;5.03;;;3.25;;
72284;SDS011;60220;53.552;10.092;2024-01-16T08:54:26;7.45;;;2.70;;
72284;SDS011;60220;53.552;10.092;2024-01-16T08:56:55;15.63;;;4.53;;
72284;SDS011;60220;53.552;10.092;2024-01-16T08:59:23;6.65;;;3.95;;
72284;SDS011;60220;53.552;10.092;2024-01-16T09:01:50;10.25;;;4.55;;
72284;SDS011;60220;53.552;10.092;2024-01-16T09:04:17;14.48;;;5.28;;
72284;SDS011;60220;53.552;10.092;2024-01-16T09:06:44;6.18;;;3.10;;
72284;SDS011;60220;53.552;10.092;2024-01-16T09:09:13;10.82;;;4.80;;
72284;SDS011;60220;53.552;10.092;2024-01-16T09:11:41;11.60;;;5.25;;
72284;SDS011;60220;53.552;10.092;2024-01-16T09:14:07;3.20;;;2.60;;
72284;SDS011;60220;53.552;10.092;2024-01-16T09:16:35;9.95;;;4.28;;
72284;SDS011;60220;53.552;10.092;2024-01-16T09:19:02;9.98;;;3.88;;
72284;SDS011;60220;53.552;10.092;2024-01-16T09:21:28;10.98;;;4.50;;
72284;SDS011;60220;53.552;10.092;2024-01-16T09:23:59;8.68;;;4.50;;
72284;SDS011;60220;53.552;10.092;2024-01-16T09:26:26;6.00;;;2.80;;
72284;SDS011;60220;53.552;10.092;2024-01-16T09:28:53;11.40;;;4.15;;
72284;SDS011;60220;53.552;10.092;2024-01-16T09:31:19;3.58;;;2.15;;
72284;SDS011;60220;53.552;10.092;2024-01-16T09:33:47;7.72;;;4.47;;
72284;SDS011;60220;53.552;10.092;2024-01-16T09:36:14;9.45;;;3.80;;
72284;SDS011;60220;53.552;10.092;2024-01-16T09:38:41;8.55;;;4.22;;
72284;SDS011;60220;53.552;10.092;2024-01-16T09:41:08;9.63;;;3.67;;
72284;SDS011;60220;53.552;10.092;2024-01-16T09:43:36;18.67;;;3.90;;
72284;SDS011;60220;53.552;10.092;2024-01-16T09:46:04;10.23;;;3.70;;
72284;SDS011;60220;53.552;10.092;2024-01-16T09:48:32;8.10;;;3.53;;
72284;SDS011;60220;53.552;10.092;2024-01-16T09:51:00;10.55;;;3.92;;
72284;SDS011;60220;53.552;10.092;2024-01-16T09:53:26;17.77;;;4.50;;
72284;SDS011;60220;53.552;10.092;2024-01-16T09:55:56;8.52;;;3.38;;
72284;SDS011;60220;53.552;10.092;2024-01-16T09:58:30;8.32;;;4.03;;
72284;SDS011;60220;53.552;10.092;2024-01-16T10:01:00;9.55;;;4.57;;
72284;SDS011;60220;53.552;10.092;2024-01-16T10:03:27;8.30;;;3.22;;
72284;SDS011;60220;53.552;10.092;2024-01-16T10:05:57;6.85;;;3.60;;
72284;SDS011;60220;53.552;10.092;2024-01-16T10:08:26;7.00;;;3.25;;
72284;SDS011;60220;53.552;10.092;2024-01-16T10:10:54;4.90;;;2.50;;
72284;SDS011;60220;53.552;10.092;2024-01-16T10:13:21;8.15;;;1.98;;
72284;SDS011;60220;53.552;10.092;2024-01-16T10:15:49;14.13;;;2.58;;
72284;SDS011;60220;53.552;10.092;2024-01-16T10:18:24;10.57;;;2.83;;
72284;SDS011;60220;53.552;10.092;2024-01-16T10:20:52;8.52;;;2.88;;
72284;SDS011;60220;53.552;10.092;2024-01-16T10:23:22;4.25;;;1.92;;
72284;SDS011;60220;53.552;10.092;2024-01-16T10:26:06;8.73;;;2.07;;
72284;SDS011;60220;53.552;10.092;2024-01-16T10:28:33;1.80;;;1.20;;
72284;SDS011;60220;53.552;10.092;2024-01-16T10:31:03;14.00;;;2.08;;
72284;SDS011;60220;53.552;10.092;2024-01-16T10:33:31;3.63;;;1.58;;
72284;SDS011;60220;53.552;10.092;2024-01-16T10:36:10;4.50;;;2.22;;
72284;SDS011;60220;53.552;10.092;2024-01-16T10:38:38;1.52;;;0.73;;
72284;SDS011;60220;53.552;10.092;2024-01-16T10:41:08;10.75;;;2.47;;
72284;SDS011;60220;53.552;10.092;2024-01-16T10:43:35;17.17;;;5.78;;
72284;SDS011;60220;53.552;10.092;2024-01-16T10:46:08;8.07;;;1.70;;
72284;SDS011;60220;53.552;10.092;2024-01-16T10:48:37;3.20;;;1.70;;
72284;SDS011;60220;53.552;10.092;2024-01-16T10:51:05;5.13;;;1.35;;
72284;SDS011;60220;53.552;10.092;2024-01-16T10:53:33;7.07;;;1.83;;
72284;SDS011;60220;53.552;10.092;2024-01-16T10:56:01;10.35;;;1.88;;
72284;SDS011;60220;53.552;10.092;2024-01-16T10:58:31;8.43;;;1.40;;
72284;SDS011;60220;53.552;10.092;2024-01-16T11:01:01;4.55;;;1.08;;
72284;SDS011;60220;53.552;10.092;2024-01-16T11:03:34;4.47;;;2.47;;
72284;SDS011;60220;53.552;10.092;2024-01-16T11:06:05;6.00;;;1.90;;
72284;SDS011;60220;53.552;10.092;2024-01-16T11:08:34;4.68;;;1.52;;
72284;SDS011;60220;53.552;10.092;2024-01-16T11:11:03;4.97;;;2.25;;
72284;SDS011;60220;53.552;10.092;2024-01-16T11:13:32;7.25;;;1.35;;
72284;SDS011;60220;53.552;10.092;2024-01-16T11:16:00;7.50;;;1.30;;
72284;SDS011;60220;53.552;10.092;2024-01-16T11:18:28;6.88;;;1.77;;
72284;SDS011;60220;53.552;10.092;2024-01-16T11:20:57;3.60;;;1.52;;
72284;SDS011;60220;53.552;10.092;2024-01-16T11:23:25;1.42;;;0.90;;
72284;SDS011;60220;53.552;10.092;2024-01-16T11:25:51;15.35;;;1.65;;
72284;SDS011;60220;53.552;10.092;2024-01-16T11:28:18;2.50;;;1.25;;
72284;SDS011;60220;53.552;10.092;2024-01-16T11:30:46;2.72;;;1.25;;
72284;SDS011;60220;53.552;10.092;2024-01-16T11:39:16;3.93;;;1.17;;
72284;SDS011;60220;53.552;10.092;2024-01-16T11:41:56;7.90;;;1.25;;
72284;SDS011;60220;53.552;10.092;2024-01-16T11:47:16;6.43;;;1.40;;
72284;SDS011;60220;53.552;10.092;2024-01-16T11:49:44;5.53;;;1.50;;
72284;SDS011;60220;53.552;10.092;2024-01-16T11:52:13;9.15;;;1.40;;
72284;SDS011;60220;53.552;10.092;2024-01-16T11:54:40;5.95;;;1.52;;
72284;SDS011;60220;53.552;10.092;2024-01-16T11:57:18;4.28;;;1.83;;
72284;SDS011;60220;53.552;10.092;2024-01-16T12:00:02;5.47;;;1.10;;
72284;SDS011;60220;53.552;10.092;2024-01-16T12:02:51;2.63;;;1.05;;
72284;SDS011;60220;53.552;10.092;2024-01-16T12:05:19;8.18;;;1.42;;
72284;SDS011;60220;53.552;10.092;2024-01-16T12:07:46;5.97;;;1.58;;
72284;SDS011;60220;53.552;10.092;2024-01-16T12:10:14;6.25;;;1.30;;
72284;SDS011;60220;53.552;10.092;2024-01-16T12:12:43;5.07;;;1.40;;
72284;SDS011;60220;53.552;10.092;2024-01-16T12:15:13;3.38;;;0.57;;
72284;SDS011;60220;53.552;10.092;2024-01-16T12:20:28;6.07;;;1.60;;
72284;SDS011;60220;53.552;10.092;2024-01-16T12:22:58;10.73;;;0.85;;
72284;SDS011;60220;53.552;10.092;2024-01-16T12:25:30;2.33;;;0.85;;
72284;SDS011;60220;53.552;10.092;2024-01-16T12:27:57;6.70;;;1.55;;
72284;SDS011;60220;53.552;10.092;2024-01-16T12:30:25;4.97;;;1.52;;
72284;SDS011;60220;53.552;10.092;2024-01-16T12:33:03;5.60;;;1.40;;
72284;SDS011;60220;53.552;10.092;2024-01-16T12:35:32;9.40;;;1.60;;
72284;SDS011;60220;53.552;10.092;2024-01-16T12:38:00;8.80;;;1.50;;
72284;SDS011;60220;53.552;10.092;2024-01-16T12:40:27;14.27;;;1.20;;
72284;SDS011;60220;53.552;10.092;2024-01-16T12:42:54;9.02;;;2.28;;
72284;SDS011;60220;53.552;10.092;2024-01-16T12:45:23;2.35;;;1.15;;
72284;SDS011;60220;53.552;10.092;2024-01-16T12:47:53;4.28;;;1.45;;
72284;SDS011;60220;53.552;10.092;2024-01-16T12:50:24;12.75;;;2.25;;
72284;SDS011;60220;53.552;10.092;2024-01-16T12:53:02;2.20;;;1.10;;
72284;SDS011;60220;53.552;10.092;2024-01-16T12:55:29;1.13;;;0.80;;
72284;SDS011;60220;53.552;10.092;2024-01-16T12:58:15;2.85;;;1.58;;
72284;SDS011;60220;53.552;10.092;2024-01-16T13:00:43;7.35;;;1.50;;
72284;SDS011;60220;53.552;10.092;2024-01-16T13:03:15;4.53;;;0.93;;
72284;SDS011;60220;53.552;10.092;2024-01-16T13:05:45;10.65;;;1.75;;
72284;SDS011;60220;53.552;10.092;2024-01-16T13:08:19;3.92;;;0.98;;
72284;SDS011;60220;53.552;10.092;2024-01-16T13:10:46;2.80;;;0.85;;
72284;SDS011;60220;53.552;10.092;2024-01-16T13:13:16;4.90;;;1.70;;
72284;SDS011;60220;53.552;10.092;2024-01-16T13:15:45;2.47;;;1.20;;
72284;SDS011;60220;53.552;10.092;2024-01-16T13:18:18;6.70;;;1.20;;
72284;SDS011;60220;53.552;10.092;2024-01-16T13:20:48;6.10;;;1.60;;
72284;SDS011;60220;53.552;10.092;2024-01-16T13:23:15;5.80;;;1.17;;
72284;SDS011;60220;53.552;10.092;2024-01-16T13:25:43;5.25;;;0.82;;
72284;SDS011;60220;53.552;10.092;2024-01-16T13:28:11;2.90;;;0.88;;
72284;SDS011;60220;53.552;10.092;2024-01-16T13:30:39;5.38;;;1.63;;
72284;SDS011;60220;53.552;10.092;2024-01-16T13:33:05;4.43;;;0.95;;
72284;SDS011;60220;53.552;10.092;2024-01-16T13:35:33;5.60;;;1.05;;
72284;SDS011;60220;53.552;10.092;2024-01-16T13:38:02;3.00;;;1.00;;
72284;SDS011;60220;53.552;10.092;2024-01-16T13:40:30;7.55;;;1.48;;
72284;SDS011;60220;53.552;10.092;2024-01-16T13:42:59;2.38;;;1.40;;
72284;SDS011;60220;53.552;10.092;2024-01-16T13:45:29;9.90;;;2.45;;
72284;SDS011;60220;53.552;10.092;2024-01-16T13:47:56;6.72;;;1.55;;
72284;SDS011;60220;53.552;10.092;2024-01-16T13:50:23;4.18;;;1.70;;
72284;SDS011;60220;53.552;10.092;2024-01-16T13:52:50;9.27;;;1.85;;
72284;SDS011;60220;53.552;10.092;2024-01-16T13:55:18;3.35;;;1.70;;
72284;SDS011;60220;53.552;10.092;2024-01-16T13:57:45;8.32;;;2.80;;
72284;SDS011;60220;53.552;10.092;2024-01-16T14:00:14;6.05;;;1.92;;
72284;SDS011;60220;53.552;10.092;2024-01-16T14:02:45;3.13;;;1.73;;
72284;SDS011;60220;53.552;10.092;2024-01-16T14:05:12;4.13;;;2.67;;
72284;SDS011;60220;53.552;10.092;2024-01-16T14:07:41;10.02;;;2.65;;
72284;SDS011;60220;53.552;10.092;2024-01-16T14:10:08;14.60;;;2.78;;
72284;SDS011;60220;53.552;10.092;2024-01-16T14:12:38;7.28;;;3.88;;
72284;SDS011;60220;53.552;10.092;2024-01-16T14:15:08;5.95;;;3.20;;
72284;SDS011;60220;53.552;10.092;2024-01-16T14:17:41;4.97;;;3.33;;
72284;SDS011;60220;53.552;10.092;2024-01-16T14:20:09;8.13;;;3.95;;
72284;SDS011;60220;53.552;10.092;2024-01-16T14:22:37;12.45;;;3.42;;
72284;SDS011;60220;53.552;10.092;2024-01-16T14:25:05;7.53;;;3.28;;
72284;SDS011;60220;53.552;10.092;2024-01-16T14:27:36;14.43;;;3.63;;
72284;SDS011;60220;53.552;10.092;2024-01-16T14:30:07;5.45;;;3.40;;
72284;SDS011;60220;53.552;10.092;2024-01-16T14:32:35;8.70;;;3.28;;
72284;SDS011;60220;53.552;10.092;2024-01-16T14:35:06;6.07;;;3.70;;
72284;SDS011;60220;53.552;10.092;2024-01-16T14:37:34;11.40;;;3.90;;
72284;SDS011;60220;53.552;10.092;2024-01-16T14:40:01;6.97;;;2.75;;
72284;SDS011;60220;53.552;10.092;2024-01-16T14:42:32;10.45;;;3.53;;
72284;SDS011;60220;53.552;10.092;2024-01-16T14:45:04;5.53;;;1.70;;
72284;SDS011;60220;53.552;10.092;2024-01-16T14:47:31;7.90;;;3.22;;
72284;SDS011;60220;53.552;10.092;2024-01-16T14:49:58;13.55;;;2.58;;
72284;SDS011;60220;53.552;10.092;2024-01-16T14:52:24;10.73;;;2.65;;